createdAt,value
2019-04-22T00:02:22.703Z,13.46
2019-04-22T00:05:01.020Z,13.41
2019-04-22T00:07:43.267Z,13.39
2019-04-22T00:10:11.550Z,13.32
2019-04-22T00:12:42.382Z,13.31
2019-04-22T00:15:03.789Z,13.29
2019-04-22T00:17:38.896Z,13.37
2019-04-22T00:20:04.922Z,13.59
2019-04-22T00:22:27.834Z,13.58
2019-04-22T00:25:03.308Z,13.36
2019-04-22T00:27:28.102Z,13.32
2019-04-22T00:30:15.494Z,13.13
2019-04-22T00:32:27.217Z,13.11
2019-04-22T00:34:53.714Z,12.97
2019-04-22T00:37:28.316Z,12.98
2019-04-22T00:39:51.799Z,13.02
2019-04-22T00:42:24.319Z,13.01
2019-04-22T00:44:51.838Z,13.12
2019-04-22T00:47:23.132Z,12.94
2019-04-22T00:54:49.535Z,12.88
2019-04-22T00:57:08.667Z,12.75
2019-04-22T00:59:37.483Z,12.85
2019-04-22T01:02:10.174Z,12.78
2019-04-22T01:04:35.005Z,12.75
2019-04-22T01:07:02.063Z,12.81
2019-04-22T01:09:30.076Z,12.77
2019-04-22T01:11:53.720Z,12.69
2019-04-22T01:14:22.048Z,12.71
2019-04-22T01:16:50.991Z,12.65
2019-04-22T01:19:16.687Z,12.45
2019-04-22T01:21:46.792Z,12.53
2019-04-22T01:24:08.816Z,12.43
2019-04-22T01:26:37.412Z,12.41
2019-04-22T01:28:59.874Z,12.51
2019-04-22T01:31:19.702Z,12.34
2019-04-22T01:33:48.366Z,11.95
2019-04-22T01:36:30.322Z,12.05
2019-04-22T01:38:58.150Z,12.26
2019-04-22T01:41:35.600Z,12.25
2019-04-22T01:44:08.293Z,12.14
2019-04-22T01:46:31.580Z,12.07
2019-04-22T01:48:57.412Z,12.33
2019-04-22T01:51:35.489Z,12.31
2019-04-22T01:53:54.766Z,12.31
2019-04-22T01:56:20.665Z,12.23
2019-04-22T01:58:38.470Z,12.10
2019-04-22T02:01:18.225Z,12.19
2019-04-22T02:03:40.048Z,12.19
2019-04-22T02:06:07.257Z,12.11
2019-04-22T02:08:53.351Z,12.04
2019-04-22T02:11:07.927Z,12.00
2019-04-22T02:13:41.294Z,12.07
2019-04-22T02:15:58.505Z,12.12
2019-04-22T02:18:35.823Z,12.00
2019-04-22T02:20:54.843Z,11.96
2019-04-22T02:26:00.913Z,11.75
2019-04-22T02:36:15.074Z,11.63
2019-04-22T02:38:34.145Z,11.33
2019-04-22T02:41:13.242Z,11.44
2019-04-22T02:46:03.043Z,11.33
2019-04-22T02:48:25.554Z,10.80
2019-04-22T02:50:43.432Z,11.22
2019-04-22T02:53:13.887Z,11.11
2019-04-22T02:55:40.867Z,10.86
2019-04-22T02:58:05.556Z,10.97
2019-04-22T03:00:37.278Z,10.86
2019-04-22T03:05:40.575Z,10.93
2019-04-22T03:08:06.648Z,11.12
2019-04-22T03:10:37.275Z,11.05
2019-04-22T03:12:51.609Z,11.09
2019-04-22T03:15:23.996Z,11.15
2019-04-22T03:17:52.031Z,11.00
2019-04-22T03:20:22.176Z,10.92
2019-04-22T03:22:51.111Z,10.95
2019-04-22T03:37:45.730Z,10.78
2019-04-22T03:42:31.934Z,10.94
2019-04-22T03:45:10.194Z,10.91
2019-04-22T03:59:53.980Z,10.60
2019-04-22T04:02:21.624Z,10.65
2019-04-22T04:07:20.547Z,10.41
2019-04-22T04:14:47.195Z,10.36
2019-04-22T04:20:00.495Z,10.33
2019-04-22T04:21:59.855Z,10.04
2019-04-22T04:24:50.973Z,10.26
2019-04-22T04:29:36.248Z,10.01
2019-04-22T04:32:01.131Z,10.05
2019-04-22T04:34:32.702Z,10.05
2019-04-22T04:36:57.803Z,10.06
2019-04-22T04:41:58.851Z,10.23
2019-04-22T04:44:35.367Z,10.20
2019-04-22T04:46:44.830Z,10.18
2019-04-22T04:49:09.683Z,10.21
2019-04-22T04:52:35.199Z,10.25
2019-04-22T04:54:13.265Z,10.25
2019-04-22T04:56:44.536Z,10.10
2019-04-22T04:59:05.771Z,10.23
2019-04-22T05:04:00.253Z,10.28
2019-04-22T05:06:22.207Z,10.33
2019-04-22T05:11:33.233Z,10.37
2019-04-22T05:13:49.778Z,10.31
2019-04-22T05:18:37.286Z,10.35
2019-04-22T05:23:39.427Z,10.36
2019-04-22T05:26:04.226Z,10.37
2019-04-22T05:28:43.334Z,10.33
2019-04-22T05:31:03.354Z,10.39
2019-04-22T05:33:30.331Z,10.48
2019-04-22T05:35:53.820Z,10.54
2019-04-22T05:38:26.099Z,10.58
2019-04-22T05:40:54.635Z,10.63
2019-04-22T05:43:14.503Z,10.71
2019-04-22T05:45:49.471Z,10.91
2019-04-22T05:48:15.021Z,11.14
2019-04-22T05:50:45.383Z,11.23
2019-04-22T05:53:08.628Z,11.51
2019-04-22T05:55:45.213Z,11.76
2019-04-22T06:01:05.716Z,12.13
2019-04-22T06:03:04.092Z,12.23
2019-04-22T06:05:38.551Z,12.45
2019-04-22T06:08:04.085Z,12.76
2019-04-22T06:10:39.434Z,12.92
2019-04-22T06:13:02.221Z,13.07
2019-04-22T06:15:36.261Z,13.08
2019-04-22T06:18:14.023Z,13.38
2019-04-22T06:20:36.961Z,13.47
2019-04-22T06:23:04.188Z,13.65
2019-04-22T06:25:54.970Z,13.86
2019-04-22T06:28:03.391Z,13.93
2019-04-22T06:30:29.195Z,14.07
2019-04-22T06:33:00.799Z,14.20
2019-04-22T06:38:20.894Z,14.53
2019-04-22T06:40:29.228Z,14.70
2019-04-22T06:42:51.861Z,14.68
2019-04-22T06:45:24.560Z,14.91
2019-04-22T06:50:16.832Z,15.20
2019-04-22T06:52:50.283Z,15.64
2019-04-22T06:55:18.569Z,15.60
2019-04-22T06:57:41.450Z,15.53
2019-04-22T07:00:14.253Z,15.86
2019-04-22T07:02:47.189Z,16.24
2019-04-22T07:05:00.991Z,16.61
2019-04-22T07:07:33.367Z,16.67
2019-04-22T07:10:06.642Z,16.96
2019-04-22T07:14:59.592Z,17.20
2019-04-22T07:17:26.253Z,17.13
2019-04-22T07:20:03.856Z,17.15
2019-04-22T07:22:18.068Z,17.35
2019-04-22T07:24:46.360Z,17.36
2019-04-22T07:32:17.305Z,16.99
2019-04-22T07:34:42.712Z,17.18
2019-04-22T07:39:35.582Z,17.84
2019-04-22T07:41:56.044Z,17.80
2019-04-22T07:44:31.243Z,18.07
2019-04-22T07:47:06.298Z,18.00
2019-04-22T07:49:33.783Z,18.59
2019-04-22T07:51:49.848Z,18.86
2019-04-22T07:54:25.905Z,18.80
2019-04-22T07:57:04.282Z,19.14
2019-04-22T07:59:22.237Z,19.81
2019-04-22T08:01:48.917Z,19.77
2019-04-22T08:04:23.067Z,19.52
2019-04-22T08:06:51.597Z,19.86
2019-04-22T08:09:13.970Z,19.78
2019-04-22T08:11:52.709Z,19.95
2019-04-22T08:14:06.860Z,20.33
2019-04-22T08:16:38.161Z,20.54
2019-04-22T08:19:14.166Z,20.36
2019-04-22T08:21:31.628Z,20.57
2019-04-22T08:24:01.207Z,20.50
2019-04-22T08:26:28.808Z,21.08
2019-04-22T08:28:59.055Z,21.33
2019-04-22T08:31:28.655Z,21.26
2019-04-22T08:34:00.592Z,21.52
2019-04-22T08:38:55.974Z,21.36
2019-04-22T08:41:28.437Z,21.47
2019-04-22T08:44:00.976Z,21.33
2019-04-22T08:46:24.192Z,21.83
2019-04-22T08:48:47.061Z,21.42
2019-04-22T08:51:19.639Z,21.35
2019-04-22T08:53:45.483Z,21.42
2019-04-22T08:56:17.230Z,21.58
2019-04-22T08:58:40.163Z,21.72
2019-04-22T09:01:04.455Z,21.80
2019-04-22T09:03:30.391Z,22.19
2019-04-22T09:06:20.146Z,22.05
2019-04-22T09:08:29.028Z,22.42
2019-04-22T09:10:57.423Z,22.81
2019-04-22T09:13:20.579Z,22.80
2019-04-22T09:15:48.782Z,22.37
2019-04-22T09:18:22.961Z,22.13
2019-04-22T09:20:49.708Z,22.23
2019-04-22T09:23:14.803Z,22.33
2019-04-22T09:25:40.208Z,23.11
2019-04-22T09:28:10.423Z,23.14
2019-04-22T09:30:42.918Z,23.07
2019-04-22T09:33:10.993Z,22.75
2019-04-22T09:35:37.631Z,23.07
2019-04-22T09:38:16.971Z,22.90
2019-04-22T09:40:35.837Z,22.93
2019-04-22T09:43:18.406Z,22.92
2019-04-22T09:45:27.549Z,22.62
2019-04-22T09:48:04.233Z,22.98
2019-04-22T09:50:30.545Z,22.98
2019-04-22T09:52:54.877Z,23.20
2019-04-22T09:55:27.091Z,23.21
2019-04-22T09:57:50.931Z,23.21
2019-04-22T10:02:48.956Z,23.51
2019-04-22T10:05:17.353Z,23.69
2019-04-22T10:07:39.520Z,23.58
2019-04-22T10:10:23.848Z,23.44
2019-04-22T10:12:42.359Z,23.51
2019-04-22T10:14:59.920Z,24.09
2019-04-22T10:17:31.645Z,24.37
2019-04-22T10:20:01.349Z,24.38
2019-04-22T10:22:32.139Z,24.86
2019-04-22T10:24:57.069Z,24.60
2019-04-22T10:27:27.989Z,24.64
2019-04-22T10:30:03.706Z,24.46
2019-04-22T10:32:23.192Z,24.39
2019-04-22T10:34:34.772Z,24.25
2019-04-22T10:36:59.050Z,24.99
2019-04-22T10:39:35.619Z,24.84
2019-04-22T10:41:50.605Z,24.91
2019-04-22T10:44:17.135Z,24.83
2019-04-22T10:46:44.369Z,24.96
2019-04-22T10:49:10.515Z,24.73
2019-04-22T10:51:36.920Z,24.83
2019-04-22T10:54:02.997Z,24.63
2019-04-22T10:56:28.871Z,25.33
2019-04-22T10:58:54.746Z,25.17
2019-04-22T11:01:21.257Z,25.19
2019-04-22T11:03:47.158Z,25.34
2019-04-22T11:06:13.242Z,25.28
2019-04-22T11:08:46.681Z,25.17
2019-04-22T11:11:21.511Z,25.30
2019-04-22T11:13:35.832Z,25.24
2019-04-22T11:16:03.306Z,25.41
2019-04-22T11:18:29.577Z,25.14
2019-04-22T11:20:55.831Z,25.12
2019-04-22T11:23:22.585Z,25.24
2019-04-22T11:25:49.915Z,25.11
2019-04-22T11:28:16.167Z,25.01
2019-04-22T11:30:42.801Z,25.41
2019-04-22T11:33:08.804Z,25.23
2019-04-22T11:35:34.810Z,25.27
2019-04-22T11:38:01.117Z,25.14
2019-04-22T11:40:36.407Z,25.28
2019-04-22T11:42:56.538Z,25.32
2019-04-22T11:45:23.521Z,25.08
2019-04-22T11:47:50.998Z,25.30
2019-04-22T11:50:17.825Z,24.97
2019-04-22T11:52:44.753Z,25.23
2019-04-22T11:55:12.870Z,25.28
2019-04-22T11:57:39.287Z,25.61
2019-04-22T12:00:09.119Z,25.67
2019-04-22T12:02:36.533Z,25.55
2019-04-22T12:05:06.090Z,25.36
2019-04-22T12:07:34.820Z,25.33
2019-04-22T12:09:59.863Z,25.35
2019-04-22T12:12:27.876Z,25.67
2019-04-22T12:14:54.422Z,25.36
2019-04-22T12:17:20.440Z,25.67
2019-04-22T12:19:46.441Z,25.57
2019-04-22T12:22:13.294Z,25.62
2019-04-22T12:24:40.555Z,25.82
2019-04-22T12:27:06.797Z,26.23
2019-04-22T12:29:33.204Z,26.05
2019-04-22T12:31:59.693Z,25.88
2019-04-22T12:34:25.833Z,25.90
2019-04-22T12:36:52.257Z,25.83
2019-04-22T12:39:18.157Z,25.63
2019-04-22T12:41:44.399Z,25.77
2019-04-22T12:44:11.702Z,25.70
2019-04-22T12:46:38.402Z,25.78
2019-04-22T12:49:04.593Z,26.01
2019-04-22T12:51:31.327Z,25.85
2019-04-22T12:53:57.329Z,26.05
2019-04-22T12:56:25.885Z,25.59
2019-04-22T12:58:51.901Z,25.62
2019-04-22T13:01:19.075Z,25.66
2019-04-22T13:03:50.157Z,25.73
2019-04-22T13:06:17.608Z,25.79
2019-04-22T13:08:43.964Z,25.76
2019-04-22T13:11:15.658Z,26.03
2019-04-22T13:13:39.046Z,25.97
2019-04-22T13:16:06.862Z,25.44
2019-04-22T13:18:40.083Z,25.53
2019-04-22T13:21:10.874Z,25.45
2019-04-22T13:23:36.980Z,25.39
2019-04-22T13:26:05.050Z,25.34
2019-04-22T13:28:31.506Z,25.16
2019-04-22T13:31:01.297Z,25.22
2019-04-22T13:33:28.490Z,25.38
2019-04-22T13:35:54.617Z,25.23
2019-04-22T13:38:20.530Z,25.21
2019-04-22T13:41:02.460Z,25.21
2019-04-22T13:43:14.200Z,25.51
2019-04-22T13:45:40.761Z,25.73
2019-04-22T13:48:24.100Z,25.99
2019-04-22T13:51:11.025Z,25.91
2019-04-22T13:56:07.418Z,25.78
2019-04-22T13:58:12.401Z,25.81
2019-04-22T14:00:31.886Z,25.81
2019-04-22T14:03:16.559Z,26.09
2019-04-22T14:05:44.888Z,26.20
2019-04-22T14:08:12.668Z,26.15
2019-04-22T14:10:38.700Z,25.97
2019-04-22T14:13:05.732Z,25.92
2019-04-22T14:15:32.268Z,25.83
2019-04-22T14:17:58.919Z,25.85
2019-04-22T14:20:28.759Z,25.67
2019-04-22T14:22:54.778Z,25.75
2019-04-22T14:25:20.832Z,25.80
2019-04-22T14:27:54.435Z,25.89
2019-04-22T14:30:15.100Z,25.89
2019-04-22T14:32:42.117Z,25.74
2019-04-22T14:35:11.220Z,25.85
2019-04-22T14:37:38.502Z,26.07
2019-04-22T14:40:09.242Z,25.82
2019-04-22T14:42:51.725Z,25.92
2019-04-22T14:45:35.780Z,25.68
2019-04-22T14:47:54.040Z,25.65
2019-04-22T14:50:17.564Z,25.46
2019-04-22T14:52:46.027Z,25.61
2019-04-22T14:55:03.603Z,25.65
2019-04-22T14:57:21.360Z,25.68
2019-04-22T14:59:48.264Z,25.94
2019-04-22T15:02:14.345Z,25.78
2019-04-22T15:04:41.574Z,25.85
2019-04-22T15:07:08.848Z,25.82
2019-04-22T15:09:34.872Z,25.62
2019-04-22T15:12:11.089Z,25.62
2019-04-22T15:14:29.874Z,25.69
2019-04-22T15:17:07.016Z,25.66
2019-04-22T15:19:35.853Z,25.64
2019-04-22T15:22:03.090Z,25.71
2019-04-22T15:24:29.538Z,25.84
2019-04-22T15:26:56.587Z,25.83
2019-04-22T15:29:23.194Z,25.88
2019-04-22T15:31:51.451Z,25.74
2019-04-22T15:34:18.599Z,25.66
2019-04-22T15:36:44.530Z,25.64
2019-04-22T15:39:11.231Z,25.52
2019-04-22T15:41:38.690Z,25.59
2019-04-22T15:44:05.964Z,25.55
2019-04-22T15:46:32.143Z,25.48
2019-04-22T15:48:58.051Z,25.36
2019-04-22T15:51:24.718Z,25.30
2019-04-22T15:53:51.948Z,25.41
2019-04-22T15:56:18.782Z,25.25
2019-04-22T15:58:46.078Z,25.18
2019-04-22T16:01:19.279Z,25.15
2019-04-22T16:03:40.636Z,25.11
2019-04-22T16:06:08.107Z,25.02
2019-04-22T16:08:37.335Z,24.99
2019-04-22T16:11:02.194Z,24.92
2019-04-22T16:13:34.003Z,24.81
2019-04-22T16:15:58.568Z,24.85
2019-04-22T16:18:26.311Z,24.78
2019-04-22T16:20:52.611Z,24.72
2019-04-22T16:23:23.985Z,24.66
2019-04-22T16:25:51.290Z,24.68
2019-04-22T16:28:17.497Z,24.76
2019-04-22T16:30:45.448Z,24.76
2019-04-22T16:33:15.278Z,24.68
2019-04-22T16:35:42.641Z,24.65
2019-04-22T16:38:08.761Z,24.63
2019-04-22T16:40:34.891Z,24.43
2019-04-22T16:43:04.190Z,24.30
2019-04-22T16:45:29.725Z,24.28
2019-04-22T16:47:55.715Z,24.27
2019-04-22T16:50:23.026Z,24.19
2019-04-22T16:52:50.105Z,24.13
2019-04-22T16:55:16.966Z,24.13
2019-04-22T16:57:44.101Z,24.05
2019-04-22T17:00:11.320Z,23.86
2019-04-22T17:02:58.656Z,23.85
2019-04-22T17:05:43.443Z,23.85
2019-04-22T17:08:10.207Z,23.77
2019-04-22T17:10:37.711Z,23.77
2019-04-22T17:13:11.240Z,23.63
2019-04-22T17:15:33.464Z,23.57
2019-04-22T17:18:01.293Z,23.51
2019-04-22T17:20:27.205Z,23.49
2019-04-22T17:22:53.513Z,23.43
2019-04-22T17:25:20.537Z,23.36
2019-04-22T17:27:47.509Z,23.41
2019-04-22T17:30:15.053Z,23.34
2019-04-22T17:32:45.014Z,23.29
2019-04-22T17:35:12.736Z,23.19
2019-04-22T17:37:47.249Z,23.15
2019-04-22T17:40:37.449Z,23.12
2019-04-22T17:43:07.138Z,23.04
2019-04-22T17:45:49.349Z,22.96
2019-04-22T17:48:31.151Z,23.00
2019-04-22T17:51:10.547Z,22.94
2019-04-22T17:53:33.451Z,22.83
2019-04-22T17:56:02.522Z,22.79
2019-04-22T17:58:27.659Z,22.74
2019-04-22T18:00:55.523Z,22.64
2019-04-22T18:03:12.756Z,22.60
2019-04-22T18:05:34.755Z,22.62
2019-04-22T18:08:17.706Z,22.50
2019-04-22T18:10:40.638Z,22.44
2019-04-22T18:13:23.451Z,22.37
2019-04-22T18:15:45.137Z,22.36
2019-04-22T18:18:12.789Z,22.32
2019-04-22T18:20:30.487Z,22.11
2019-04-22T18:22:55.415Z,22.10
2019-04-22T18:25:29.536Z,22.10
2019-04-22T18:28:07.432Z,21.89
2019-04-22T18:30:27.464Z,21.89
2019-04-22T18:33:01.969Z,21.84
2019-04-22T18:35:32.332Z,21.78
2019-04-22T18:38:03.321Z,21.71
2019-04-22T18:40:34.055Z,21.61
2019-04-22T18:42:58.832Z,21.61
2019-04-22T18:47:52.142Z,21.34
2019-04-22T18:50:34.004Z,21.44
2019-04-22T18:53:16.084Z,21.34
2019-04-22T18:55:41.380Z,21.25
2019-04-22T18:58:08.932Z,21.28
2019-04-22T19:00:29.394Z,21.21
2019-04-22T19:03:01.947Z,21.07
2019-04-22T19:05:42.731Z,20.99
2019-04-22T19:08:30.408Z,20.99
2019-04-22T19:11:17.598Z,20.85
2019-04-22T19:14:10.156Z,20.85
2019-04-22T19:16:51.904Z,20.72
2019-04-22T19:21:58.839Z,20.58
2019-04-22T19:24:29.850Z,20.68
2019-04-22T19:27:02.120Z,20.56
2019-04-22T19:29:32.308Z,20.50
2019-04-22T19:31:57.356Z,20.46
2019-04-22T19:34:25.668Z,20.53
2019-04-22T19:36:51.256Z,20.29
2019-04-22T19:39:17.305Z,20.25
2019-04-22T19:41:53.681Z,20.30
2019-04-22T19:44:14.536Z,20.20
2019-04-22T19:47:21.231Z,20.15
2019-04-22T19:49:36.423Z,20.11
2019-04-22T19:52:05.962Z,20.09
2019-04-22T19:54:26.289Z,20.09
2019-04-22T19:56:45.614Z,20.04
2019-04-22T19:59:16.394Z,20.01
2019-04-22T20:01:58.680Z,19.86
2019-04-22T20:04:43.030Z,19.91
2019-04-22T20:06:57.624Z,19.70
2019-04-22T20:09:31.610Z,19.62
2019-04-22T20:11:57.642Z,19.67
2019-04-22T20:14:21.783Z,19.59
2019-04-22T20:16:46.645Z,19.57
2019-04-22T20:19:25.377Z,19.42
2019-04-22T20:21:49.466Z,19.37
2019-04-22T20:24:05.731Z,19.36
2019-04-22T20:26:50.095Z,19.40
2019-04-22T20:29:19.099Z,19.32
2019-04-22T20:31:44.229Z,19.36
2019-04-22T20:34:09.885Z,19.30
2019-04-22T20:36:55.393Z,19.15
2019-04-22T20:38:59.266Z,19.07
2019-04-22T20:41:28.304Z,19.00
2019-04-22T20:43:56.534Z,19.07
2019-04-22T20:46:23.847Z,18.89
2019-04-22T20:48:56.918Z,18.90
2019-04-22T20:51:24.320Z,18.91
2019-04-22T20:53:49.059Z,18.81
2019-04-22T20:56:17.501Z,18.74
2019-04-22T20:58:45.195Z,18.60
2019-04-22T21:01:03.853Z,18.72
2019-04-22T21:03:29.391Z,18.66
2019-04-22T21:06:05.991Z,18.58
2019-04-22T21:08:38.638Z,18.65
2019-04-22T21:11:04.209Z,18.45
2019-04-22T21:13:27.853Z,18.42
2019-04-22T21:16:09.399Z,18.45
2019-04-22T21:18:27.835Z,18.36
2019-04-22T21:21:02.754Z,18.35
2019-04-22T21:23:23.200Z,18.47
2019-04-22T21:25:58.041Z,18.31
2019-04-22T21:28:28.902Z,18.36
2019-04-22T21:30:53.893Z,18.23
2019-04-22T21:33:16.198Z,18.08
2019-04-22T21:35:59.573Z,18.13
2019-04-22T21:38:15.163Z,18.10
2019-04-22T21:40:43.846Z,18.00
2019-04-22T21:43:16.237Z,17.93
2019-04-22T21:45:32.299Z,17.91
2019-04-22T21:48:20.120Z,17.94
2019-04-22T21:53:06.619Z,17.77
2019-04-22T21:55:37.896Z,17.80
2019-04-22T21:58:12.199Z,17.71
2019-04-22T22:00:55.766Z,17.62
2019-04-22T22:03:19.348Z,17.56
2019-04-22T22:05:38.192Z,17.52
2019-04-22T22:08:02.816Z,17.43
2019-04-22T22:10:43.433Z,17.57
2019-04-22T22:13:06.377Z,17.50
2019-04-22T22:15:30.281Z,17.21
2019-04-22T22:17:58.628Z,17.35
2019-04-22T22:20:22.789Z,17.47
2019-04-22T22:23:00.553Z,17.21
2019-04-22T22:25:24.099Z,17.29
2019-04-22T22:27:50.842Z,17.35
2019-04-22T22:30:45.771Z,17.09
2019-04-22T22:32:56.437Z,17.22
2019-04-22T22:35:20.701Z,16.90
2019-04-22T22:37:50.199Z,17.11
2019-04-22T22:40:07.487Z,17.00
2019-04-22T22:42:35.810Z,16.87
2019-04-22T22:45:05.962Z,16.92
2019-04-22T22:47:39.244Z,16.80
2019-04-22T22:50:09.075Z,16.86
2019-04-22T22:52:51.670Z,16.71
2019-04-22T22:55:03.886Z,16.65
2019-04-22T23:00:01.775Z,16.58
2019-04-22T23:02:28.084Z,16.75
2019-04-22T23:04:57.499Z,16.54
2019-04-22T23:07:32.278Z,16.45
2019-04-22T23:09:58.522Z,16.33
2019-04-22T23:12:30.765Z,16.60
2019-04-22T23:14:49.754Z,16.44
2019-04-22T23:17:03.201Z,16.17
2019-04-22T23:19:23.982Z,16.39
2019-04-22T23:21:54.471Z,16.26
2019-04-22T23:24:52.253Z,16.17
2019-04-22T23:27:29.359Z,16.27
2019-04-22T23:29:49.454Z,16.13
2019-04-22T23:32:22.693Z,16.17
2019-04-22T23:34:55.955Z,16.06
2019-04-22T23:37:21.689Z,15.95
2019-04-22T23:40:02.207Z,15.86
2019-04-22T23:42:39.757Z,16.06
2019-04-22T23:44:49.595Z,15.90
2019-04-22T23:47:14.965Z,15.74
2019-04-22T23:49:47.066Z,16.01
2019-04-22T23:52:21.178Z,15.73
2019-04-22T23:55:04.556Z,15.80
2019-04-22T23:57:31.343Z,15.89
2019-04-22T23:59:57.211Z,15.81
